createdAt,value
2019-05-01T00:01:09.164Z,12.40
2019-05-01T00:06:17.641Z,12.40
2019-05-01T00:11:22.529Z,12.40
2019-05-01T00:16:27.175Z,12.30
2019-05-01T00:21:31.716Z,12.30
2019-05-01T00:26:36.276Z,12.30
2019-05-01T00:31:41.103Z,12.40
2019-05-01T00:36:45.924Z,12.40
2019-05-01T00:41:50.736Z,12.30
2019-05-01T00:46:55.297Z,12.30
2019-05-01T00:51:59.867Z,12.30
2019-05-01T00:57:12.288Z,12.20
2019-05-01T01:02:32.389Z,12.30
2019-05-01T01:07:36.940Z,12.30
2019-05-01T01:12:41.525Z,12.30
2019-05-01T01:17:46.175Z,12.30
2019-05-01T01:22:50.866Z,12.30
2019-05-01T01:27:55.655Z,12.20
2019-05-01T01:33:01.624Z,12.30
2019-05-01T01:38:06.219Z,12.20
2019-05-01T01:43:28.719Z,12.20
2019-05-01T01:48:34.024Z,12.20
2019-05-01T01:53:38.960Z,12.20
2019-05-01T01:58:44.128Z,12.20
2019-05-01T02:03:53.296Z,12.20
2019-05-01T02:08:57.966Z,12.20
2019-05-01T02:14:02.623Z,12.20
2019-05-01T02:19:07.608Z,12.20
2019-05-01T02:24:12.259Z,12.20
2019-05-01T02:29:22.864Z,12.20
2019-05-01T02:34:28.025Z,12.30
2019-05-01T02:39:35.282Z,12.30
2019-05-01T02:44:46.756Z,12.30
2019-05-01T02:50:00.634Z,12.30
2019-05-01T02:55:10.197Z,12.30
2019-05-01T03:00:15.118Z,12.20
2019-05-01T03:05:19.797Z,12.20
2019-05-01T03:10:24.481Z,12.10
2019-05-01T03:15:31.491Z,12.20
2019-05-01T03:20:58.230Z,12.20
2019-05-01T03:26:03.277Z,12.20
2019-05-01T03:31:08.780Z,12.10
2019-05-01T03:36:13.400Z,12.10
2019-05-01T03:41:19.118Z,12.10
2019-05-01T03:46:23.780Z,12.10
2019-05-01T03:51:30.176Z,12.10
2019-05-01T03:56:35.365Z,12.10
2019-05-01T04:01:59.433Z,12.10
2019-05-01T04:07:04.636Z,12.10
2019-05-01T04:12:09.557Z,12.10
2019-05-01T04:17:23.851Z,12.10
2019-05-01T04:22:28.443Z,12.00
2019-05-01T04:27:35.853Z,12.00
2019-05-01T04:32:51.736Z,12.00
2019-05-01T04:37:47.351Z,12.00
2019-05-01T05:23:33.317Z,12.00
2019-05-01T05:28:57.384Z,12.00
2019-05-01T05:34:04.345Z,12.00
2019-05-01T05:39:22.274Z,12.00
2019-05-01T05:44:27.350Z,12.00
2019-05-01T05:49:35.523Z,11.90
2019-05-01T05:54:58.923Z,11.90
2019-05-01T06:00:27.527Z,11.90
2019-05-01T06:06:03.353Z,11.80
2019-05-01T06:11:33.924Z,11.90
2019-05-01T06:16:54.093Z,11.90
2019-05-01T06:22:24.363Z,11.90
2019-05-01T06:27:30.440Z,11.90
2019-05-01T06:32:35.223Z,11.90
2019-05-01T06:38:00.625Z,11.80
2019-05-01T06:43:05.169Z,11.80
2019-05-01T06:48:14.188Z,11.80
2019-05-01T06:53:17.415Z,11.80
2019-05-01T06:58:22.908Z,11.90
2019-05-01T07:03:27.633Z,11.80
2019-05-01T07:08:39.596Z,11.80
2019-05-01T07:13:59.689Z,11.80
2019-05-01T07:19:07.023Z,11.90
2019-05-01T07:24:11.990Z,11.90
2019-05-01T07:29:19.389Z,11.90
2019-05-01T07:34:26.163Z,12.00
2019-05-01T07:39:32.702Z,12.10
2019-05-01T07:44:48.560Z,12.10
2019-05-01T07:49:56.774Z,12.20
2019-05-01T07:55:01.511Z,12.20
2019-05-01T08:00:10.809Z,12.30
2019-05-01T08:05:15.406Z,12.20
2019-05-01T08:10:21.090Z,12.20
2019-05-01T08:15:27.622Z,12.40
2019-05-01T08:20:38.843Z,12.40
2019-05-01T08:25:44.399Z,12.50
2019-05-01T08:31:06.070Z,12.60
2019-05-01T08:36:11.778Z,12.70
2019-05-01T08:41:17.328Z,12.70
2019-05-01T08:46:34.912Z,12.80
2019-05-01T08:51:39.497Z,12.80
2019-05-01T08:56:44.083Z,12.90
2019-05-01T09:01:50.619Z,13.00
2019-05-01T09:06:55.239Z,13.10
2019-05-01T09:12:06.767Z,13.10
2019-05-01T09:17:09.904Z,13.10
2019-05-01T09:22:14.839Z,13.20
2019-05-01T09:27:42.021Z,13.30
2019-05-01T09:32:54.239Z,13.30
2019-05-01T09:38:07.723Z,13.40
2019-05-01T09:43:12.467Z,13.40
2019-05-01T09:48:17.161Z,13.40
2019-05-01T09:53:34.349Z,13.50
2019-05-01T09:58:37.499Z,13.50
2019-05-01T10:03:44.855Z,13.60
2019-05-01T10:08:49.884Z,13.60
2019-05-01T10:13:58.409Z,13.70
2019-05-01T10:19:04.447Z,13.70
2019-05-01T10:24:09.188Z,13.80
2019-05-01T10:29:27.638Z,13.90
2019-05-01T10:34:46.315Z,14.00
2019-05-01T10:39:54.061Z,14.00
2019-05-01T10:44:57.503Z,14.10
2019-05-01T10:50:02.104Z,14.10
2019-05-01T10:55:07.805Z,14.20
2019-05-01T11:00:14.476Z,14.20
2019-05-01T11:05:19.160Z,14.30
2019-05-01T11:10:24.292Z,14.30
2019-05-01T11:15:29.396Z,14.40
2019-05-01T11:20:34.034Z,14.40
2019-05-01T11:25:46.562Z,14.40
2019-05-01T11:30:52.827Z,14.40
2019-05-01T11:36:15.731Z,14.50
2019-05-01T11:41:25.589Z,14.60
2019-05-01T11:46:31.005Z,14.60
2019-05-01T11:51:36.838Z,14.70
2019-05-01T11:56:41.681Z,14.60
2019-05-01T12:01:46.405Z,14.60
2019-05-01T12:06:51.261Z,14.70
2019-05-01T12:11:59.340Z,14.70
2019-05-01T12:17:12.053Z,14.80
2019-05-01T12:22:16.977Z,14.80
2019-05-01T12:27:21.584Z,14.80
2019-05-01T12:32:26.258Z,14.80
2019-05-01T12:37:35.752Z,14.90
2019-05-01T12:42:40.969Z,15.00
2019-05-01T12:48:03.182Z,15.00
2019-05-01T12:53:17.108Z,15.10
2019-05-01T12:58:21.711Z,15.20
2019-05-01T13:03:26.310Z,15.20
2019-05-01T13:08:31.172Z,15.20
2019-05-01T13:13:35.768Z,15.20
2019-05-01T13:18:40.361Z,15.20
2019-05-01T13:23:44.949Z,15.20
2019-05-01T13:28:56.043Z,15.20
2019-05-01T13:34:00.659Z,15.20
2019-05-01T13:39:08.279Z,15.20
2019-05-01T13:44:12.917Z,15.20
2019-05-01T13:49:17.604Z,15.20
2019-05-01T13:54:22.194Z,15.30
2019-05-01T13:59:27.048Z,15.40
2019-05-01T14:04:32.195Z,15.40
2019-05-01T14:09:37.338Z,15.40
2019-05-01T14:14:41.918Z,15.40
2019-05-01T14:19:53.431Z,15.50
2019-05-01T14:24:59.186Z,15.50
2019-05-01T14:30:04.624Z,15.50
2019-05-01T14:35:11.671Z,15.40
2019-05-01T14:40:16.411Z,15.50
2019-05-01T14:45:22.527Z,15.50
2019-05-01T14:50:27.100Z,15.60
2019-05-01T14:55:31.743Z,15.70
2019-05-01T15:00:36.845Z,15.80
2019-05-01T15:05:41.453Z,15.90
2019-05-01T15:10:46.048Z,16.00
2019-05-01T15:16:01.988Z,16.10
2019-05-01T15:21:06.722Z,16.20
2019-05-01T15:26:11.729Z,16.30
2019-05-01T15:31:16.429Z,16.40
2019-05-01T15:36:21.096Z,16.50
2019-05-01T15:41:51.849Z,16.50
2019-05-01T15:46:58.786Z,16.60
2019-05-01T15:52:03.836Z,16.60
2019-05-01T15:57:08.482Z,16.70
2019-05-01T16:02:13.895Z,16.60
2019-05-01T16:07:20.864Z,16.60
2019-05-01T16:12:34.303Z,16.50
2019-05-01T16:17:38.939Z,16.50
2019-05-01T16:22:43.574Z,16.50
2019-05-01T16:27:48.552Z,16.50
2019-05-01T16:32:53.496Z,16.50
2019-05-01T16:38:02.725Z,16.40
2019-05-01T16:43:10.275Z,16.40
2019-05-01T16:48:15.095Z,16.40
2019-05-01T16:53:19.935Z,16.30
2019-05-01T16:58:25.036Z,16.20
2019-05-01T17:03:57.413Z,16.00
2019-05-01T17:09:26.095Z,15.90
2019-05-01T17:14:34.342Z,15.70
2019-05-01T17:19:40.256Z,15.50
2019-05-01T17:24:44.863Z,15.40
2019-05-01T17:30:04.603Z,15.30
2019-05-01T17:35:07.972Z,15.20
2019-05-01T17:40:14.747Z,15.00
2019-05-01T17:45:19.649Z,14.90
2019-05-01T17:50:28.393Z,14.80
2019-05-01T17:55:34.332Z,14.60
2019-05-01T18:01:27.708Z,14.50
2019-05-01T18:37:34.674Z,13.70
2019-05-01T18:43:32.224Z,13.60
2019-05-01T19:51:14.316Z,12.70
2019-05-01T19:56:21.390Z,12.70
2019-05-01T20:01:28.291Z,12.60
2019-05-01T20:06:33.029Z,12.50
2019-05-01T20:11:37.828Z,12.40
2019-05-01T20:16:43.092Z,12.40
2019-05-01T20:21:47.983Z,12.30
2019-05-01T20:26:52.758Z,12.20
2019-05-01T20:31:57.440Z,12.10
2019-05-01T20:37:03.024Z,12.10
2019-05-01T20:42:08.855Z,12.10
2019-05-01T20:47:13.520Z,12.00
2019-05-01T20:52:18.381Z,12.00
2019-05-01T20:57:27.871Z,12.00
2019-05-01T21:02:33.389Z,12.10
2019-05-01T21:07:42.819Z,12.10
2019-05-01T21:12:47.701Z,12.10
2019-05-01T21:17:52.712Z,12.10
2019-05-01T21:22:57.346Z,11.90
2019-05-01T21:28:01.951Z,11.80
2019-05-01T21:33:10.346Z,11.80
2019-05-01T21:38:12.850Z,11.70
2019-05-01T21:43:17.489Z,11.60
2019-05-01T21:48:23.154Z,11.60
2019-05-01T21:53:27.871Z,11.50
2019-05-01T21:58:33.964Z,11.30
2019-05-01T22:03:38.887Z,11.30
2019-05-01T22:08:43.488Z,11.10
2019-05-01T22:13:48.219Z,11.00
2019-05-01T22:19:01.311Z,11.00
2019-05-01T22:24:30.904Z,11.00
2019-05-01T22:29:39.279Z,11.10
2019-05-01T22:34:57.720Z,11.10
2019-05-01T22:40:05.978Z,11.10
2019-05-01T22:45:18.608Z,11.00
2019-05-01T22:50:23.268Z,11.00
2019-05-01T22:55:28.116Z,11.10
2019-05-01T23:00:49.755Z,11.10
2019-05-01T23:05:54.431Z,11.00
2019-05-01T23:10:59.096Z,10.90
2019-05-01T23:16:06.156Z,10.80
2019-05-01T23:21:14.538Z,10.60
2019-05-01T23:26:18.604Z,10.60
2019-05-01T23:31:23.963Z,10.70
2019-05-01T23:36:28.808Z,10.70
2019-05-01T23:41:45.358Z,10.90
2019-05-01T23:46:40.448Z,10.80
2019-05-01T23:52:22.320Z,10.70
2019-05-01T23:57:00.848Z,10.60
